Terminal Aerodrome Forecast
Issued by NWS Charleston, WV

Current Version | Previous Version | Graphics & Text | Print | Product List | Glossary On
Versions: 1 2 3 4 5 6 7 8 9 10 11 12 13 14 15 16 17 18 19 20 21 22 23 24 25 26 27
000
FTUS41 KRLX 181500 AAA
TAFBKW
TAF AMD
KBKW 181527Z 1815/1912 30005KT P6SM BKN015
     FM181900 31005KT P6SM SCT020 BKN070
      TEMPO 1819/1821 BKN020
     FM190900 30004KT 6SM -SHSN BKN020=

USA.gov is the U.S. government's official web portal to all federal, state and local government web resources and services.